createdAt,value
2018-04-18T00:01:11.681Z,78.00
2018-04-18T00:03:39.194Z,78.00
2018-04-18T00:06:06.708Z,77.70
2018-04-18T00:08:34.214Z,77.70
2018-04-18T00:11:01.733Z,78.30
2018-04-18T00:13:29.227Z,78.60
2018-04-18T00:15:56.732Z,78.90
2018-04-18T00:18:24.218Z,78.30
2018-04-18T00:20:51.724Z,78.10
2018-04-18T00:23:19.616Z,78.60
2018-04-18T00:25:47.537Z,78.60
2018-04-18T00:28:15.044Z,78.60
2018-04-18T00:30:42.562Z,78.60
2018-04-18T00:33:10.061Z,78.50
2018-04-18T00:35:37.982Z,78.80
2018-04-18T00:38:05.549Z,78.80
2018-04-18T00:40:33.452Z,78.70
2018-04-18T00:43:00.939Z,78.70
2018-04-18T00:45:28.497Z,79.10
2018-04-18T00:47:56.383Z,79.20
2018-04-18T00:50:23.901Z,79.10
2018-04-18T00:52:51.391Z,79.00
2018-04-18T00:55:18.913Z,78.90
2018-04-18T00:57:46.407Z,79.30
2018-04-18T01:00:13.999Z,79.70
2018-04-18T01:02:41.507Z,80.00
2018-04-18T01:05:09.042Z,79.90
2018-04-18T01:07:36.551Z,79.70
2018-04-18T01:10:04.077Z,79.90
2018-04-18T01:12:32.415Z,79.50
2018-04-18T01:14:59.926Z,79.50
2018-04-18T01:17:27.416Z,79.30
2018-04-18T01:19:55.395Z,79.30
2018-04-18T01:22:22.883Z,79.30
2018-04-18T01:24:50.463Z,79.40
2018-04-18T01:27:18.052Z,79.90
2018-04-18T01:29:45.563Z,79.80
2018-04-18T01:32:13.954Z,79.60
2018-04-18T01:34:41.864Z,79.90
2018-04-18T01:37:09.420Z,79.90
2018-04-18T01:39:36.934Z,80.20
2018-04-18T01:42:04.455Z,80.10
2018-04-18T01:44:31.957Z,79.90
2018-04-18T01:46:59.485Z,79.40
2018-04-18T01:49:31.908Z,79.60
2018-04-18T01:51:59.437Z,79.50
2018-04-18T01:54:27.323Z,79.50
2018-04-18T01:56:54.857Z,79.50
2018-04-18T01:59:22.404Z,80.20
2018-04-18T02:01:49.893Z,80.30
2018-04-18T02:04:17.416Z,80.10
2018-04-18T02:06:44.931Z,80.00
2018-04-18T02:09:12.423Z,79.80
2018-04-18T02:11:39.933Z,80.10
2018-04-18T02:14:07.829Z,80.40
2018-04-18T02:16:35.731Z,80.40
2018-04-18T02:19:03.223Z,80.40
2018-04-18T02:21:30.771Z,80.50
2018-04-18T02:23:58.700Z,80.40
2018-04-18T02:26:26.276Z,80.40
2018-04-18T02:28:53.772Z,80.30
2018-04-18T02:31:21.284Z,80.10
2018-04-18T02:33:48.779Z,80.30
2018-04-18T02:36:16.304Z,80.40
2018-04-18T02:38:43.810Z,80.30
2018-04-18T02:41:11.333Z,80.30
2018-04-18T02:43:39.033Z,80.20
2018-04-18T02:46:06.943Z,80.70
2018-04-18T02:48:34.846Z,81.00
2018-04-18T02:51:02.351Z,81.00
2018-04-18T02:53:29.843Z,80.90
2018-04-18T02:55:57.353Z,81.00
2018-04-18T02:58:24.849Z,81.20
2018-04-18T03:00:52.760Z,81.70
2018-04-18T03:03:20.661Z,81.30
2018-04-18T03:05:48.240Z,81.30
2018-04-18T03:08:15.733Z,81.40
2018-04-18T03:10:43.258Z,81.20
2018-04-18T03:13:10.767Z,81.30
2018-04-18T03:15:38.357Z,81.20
2018-04-18T03:18:05.842Z,81.00
2018-04-18T03:20:33.754Z,81.50
2018-04-18T03:23:01.517Z,81.50
2018-04-18T03:25:29.517Z,81.90
2018-04-18T03:27:57.411Z,82.30
2018-04-18T03:30:25.411Z,82.00
2018-04-18T03:32:53.323Z,81.80
2018-04-18T03:35:20.836Z,81.80
2018-04-18T03:37:48.335Z,81.80
2018-04-18T03:40:15.953Z,81.80
2018-04-18T03:42:43.949Z,82.40
2018-04-18T03:45:11.955Z,81.90
2018-04-18T03:47:39.869Z,81.90
2018-04-18T03:50:07.414Z,81.90
2018-04-18T03:52:35.350Z,82.30
2018-04-18T03:55:02.895Z,82.30
2018-04-18T03:57:30.901Z,82.30
2018-04-18T03:59:58.399Z,82.30
2018-04-18T04:02:25.915Z,82.10
2018-04-18T04:04:53.415Z,82.10
2018-04-18T04:07:20.932Z,82.30
2018-04-18T04:09:48.845Z,82.50
2018-04-18T04:12:16.360Z,82.50
2018-04-18T04:14:43.855Z,82.60
2018-04-18T04:17:23.192Z,83.00
2018-04-18T04:20:02.678Z,82.90
2018-04-18T04:22:42.281Z,82.90
2018-04-18T04:25:09.859Z,82.80
2018-04-18T04:27:37.384Z,82.90
2018-04-18T04:30:04.893Z,83.20
2018-04-18T04:32:32.425Z,83.10
2018-04-18T04:35:00.325Z,83.30
2018-04-18T04:37:27.962Z,83.30
2018-04-18T04:39:55.473Z,83.30
2018-04-18T04:42:23.467Z,83.60
2018-04-18T04:44:51.112Z,83.60
2018-04-18T04:47:19.062Z,83.60
2018-04-18T04:49:46.973Z,83.50
2018-04-18T04:52:14.527Z,83.40
2018-04-18T04:54:42.537Z,83.60
2018-04-18T04:57:10.461Z,83.60
2018-04-18T04:59:37.965Z,83.60
2018-04-18T05:02:05.492Z,83.70
2018-04-18T05:04:33.004Z,83.70
2018-04-18T05:07:00.524Z,83.70
2018-04-18T05:09:28.030Z,84.50
2018-04-18T05:11:55.953Z,84.30
2018-04-18T05:14:23.470Z,84.30
2018-04-18T05:16:51.005Z,84.30
2018-04-18T05:19:18.903Z,84.20
2018-04-18T05:21:46.829Z,84.50
2018-04-18T05:24:14.327Z,84.50
2018-04-18T05:26:41.975Z,83.60
2018-04-18T05:29:09.486Z,84.10
2018-04-18T05:31:37.004Z,83.90
2018-04-18T05:34:04.617Z,83.70
2018-04-18T05:36:32.525Z,84.30
2018-04-18T05:39:00.034Z,84.30
2018-04-18T05:41:27.559Z,83.90
2018-04-18T05:43:55.165Z,84.20
2018-04-18T05:46:23.148Z,84.30
2018-04-18T05:48:50.740Z,84.30
2018-04-18T05:51:18.645Z,84.20
2018-04-18T05:53:46.565Z,84.00
2018-04-18T05:56:14.068Z,84.00
2018-04-18T05:58:41.596Z,83.60
2018-04-18T06:01:09.489Z,83.20
2018-04-18T06:03:37.397Z,82.30
2018-04-18T06:06:04.973Z,82.30
2018-04-18T06:08:32.887Z,80.30
2018-04-18T06:11:00.389Z,80.30
2018-04-18T06:13:27.918Z,80.00
2018-04-18T06:15:55.811Z,78.50
2018-04-18T06:18:23.323Z,78.50
2018-04-18T06:20:50.828Z,77.60
2018-04-18T06:23:18.359Z,77.40
2018-04-18T06:25:45.957Z,77.20
2018-04-18T06:28:13.934Z,74.50
2018-04-18T06:30:41.423Z,74.50
2018-04-18T06:33:08.944Z,73.70
2018-04-18T06:35:36.440Z,72.70
2018-04-18T06:38:03.953Z,70.70
2018-04-18T06:40:31.447Z,70.40
2018-04-18T06:42:58.957Z,68.90
2018-04-18T06:45:26.455Z,66.60
2018-04-18T06:47:53.964Z,67.40
2018-04-18T06:50:21.456Z,66.90
2018-04-18T06:52:48.959Z,67.10
2018-04-18T06:55:16.451Z,66.40
2018-04-18T06:57:44.006Z,65.50
2018-04-18T07:00:11.519Z,65.30
2018-04-18T07:02:39.042Z,65.90
2018-04-18T07:05:06.541Z,66.40
2018-04-18T07:07:34.051Z,66.10
2018-04-18T07:10:01.554Z,65.80
2018-04-18T07:12:29.070Z,65.10
2018-04-18T07:14:56.576Z,63.50
2018-04-18T07:17:24.097Z,63.20
2018-04-18T07:19:51.687Z,62.50
2018-04-18T07:22:19.281Z,62.00
2018-04-18T07:24:46.863Z,60.40
2018-04-18T07:27:14.365Z,60.40
2018-04-18T07:29:42.251Z,59.20
2018-04-18T07:32:10.241Z,58.80
2018-04-18T07:34:38.127Z,58.60
2018-04-18T07:37:05.721Z,58.60
2018-04-18T07:39:33.628Z,57.60
2018-04-18T07:42:01.116Z,57.60
2018-04-18T07:44:28.637Z,58.60
2018-04-18T07:46:56.159Z,60.40
2018-04-18T07:49:24.084Z,59.80
2018-04-18T07:51:51.570Z,59.80
2018-04-18T07:54:19.081Z,58.50
2018-04-18T07:56:46.581Z,58.70
2018-04-18T07:59:14.099Z,58.60
2018-04-18T08:01:42.090Z,58.10
2018-04-18T08:04:09.999Z,56.60
2018-04-18T08:06:37.505Z,56.60
2018-04-18T08:09:05.032Z,58.20
2018-04-18T08:11:32.532Z,57.10
2018-04-18T08:14:00.515Z,58.40
2018-04-18T08:16:28.408Z,57.20
2018-04-18T08:18:56.337Z,57.40
2018-04-18T08:21:23.891Z,57.40
2018-04-18T08:23:51.885Z,58.20
2018-04-18T08:26:19.784Z,58.40
2018-04-18T08:28:47.768Z,57.10
2018-04-18T08:31:15.351Z,57.10
2018-04-18T08:33:42.873Z,56.90
2018-04-18T08:36:10.370Z,57.30
2018-04-18T08:38:37.894Z,56.10
2018-04-18T08:41:05.396Z,56.50
2018-04-18T08:43:33.316Z,56.00
2018-04-18T08:46:00.815Z,56.00
2018-04-18T08:48:28.367Z,56.70
2018-04-18T08:50:56.347Z,55.90
2018-04-18T08:53:24.271Z,56.40
2018-04-18T08:55:51.821Z,56.40
2018-04-18T08:58:19.736Z,56.90
2018-04-18T09:00:47.229Z,56.90
2018-04-18T09:03:14.786Z,55.30
2018-04-18T09:05:42.686Z,53.70
2018-04-18T09:08:10.592Z,54.20
2018-04-18T09:10:38.157Z,54.20
2018-04-18T09:13:06.068Z,51.40
2018-04-18T09:15:33.568Z,51.40
2018-04-18T09:18:01.079Z,53.00
2018-04-18T09:20:28.571Z,50.50
2018-04-18T09:22:56.092Z,50.50
2018-04-18T09:25:23.987Z,51.50
2018-04-18T09:27:51.881Z,51.80
2018-04-18T09:30:19.412Z,51.80
2018-04-18T09:32:46.917Z,51.60
2018-04-18T09:35:14.427Z,48.90
2018-04-18T09:37:42.309Z,49.00
2018-04-18T09:40:10.220Z,48.20
2018-04-18T09:42:37.774Z,48.20
2018-04-18T09:45:05.429Z,47.30
2018-04-18T09:47:32.913Z,47.70
2018-04-18T09:50:00.458Z,48.30
2018-04-18T09:52:27.947Z,47.10
2018-04-18T09:54:55.541Z,46.20
2018-04-18T09:57:23.051Z,47.30
2018-04-18T09:59:50.687Z,48.90
2018-04-18T10:02:18.629Z,47.80
2018-04-18T10:04:46.148Z,47.80
2018-04-18T10:07:13.741Z,46.80
2018-04-18T10:09:41.647Z,46.90
2018-04-18T10:12:09.532Z,47.90
2018-04-18T10:14:37.521Z,46.50
2018-04-18T10:17:05.512Z,46.50
2018-04-18T10:19:33.023Z,46.60
2018-04-18T10:22:00.540Z,46.80
2018-04-18T10:24:28.184Z,46.40
2018-04-18T10:26:55.753Z,46.50
2018-04-18T10:29:23.654Z,45.00
2018-04-18T10:31:51.640Z,45.60
2018-04-18T10:34:19.557Z,46.50
2018-04-18T10:36:47.059Z,46.50
2018-04-18T10:39:14.571Z,47.20
2018-04-18T10:41:42.086Z,47.80
2018-04-18T10:44:09.987Z,47.60
2018-04-18T10:46:37.963Z,46.50
2018-04-18T10:49:05.467Z,46.50
2018-04-18T10:51:33.348Z,48.00
2018-04-18T10:54:01.309Z,44.90
2018-04-18T10:56:28.823Z,44.90
2018-04-18T10:58:56.755Z,47.50
2018-04-18T11:01:24.249Z,47.50
2018-04-18T11:03:51.759Z,45.30
2018-04-18T11:06:19.257Z,46.10
2018-04-18T11:08:46.846Z,46.20
2018-04-18T11:11:14.331Z,44.00
2018-04-18T11:13:41.929Z,47.00
2018-04-18T11:16:09.929Z,44.70
2018-04-18T11:18:37.866Z,48.30
2018-04-18T11:21:05.356Z,48.30
2018-04-18T11:23:32.854Z,46.10
2018-04-18T11:26:00.455Z,46.50
2018-04-18T11:28:28.457Z,44.20
2018-04-18T11:30:56.360Z,43.90
2018-04-18T11:33:24.333Z,45.70
2018-04-18T11:35:51.853Z,45.70
2018-04-18T11:38:19.339Z,44.30
2018-04-18T11:40:46.875Z,44.50
2018-04-18T11:43:14.378Z,42.90
2018-04-18T11:45:42.295Z,43.00
2018-04-18T11:48:09.796Z,43.00
2018-04-18T11:50:37.311Z,43.50
2018-04-18T11:53:04.798Z,43.20
2018-04-18T11:55:32.314Z,45.20
2018-04-18T11:58:00.304Z,43.70
2018-04-18T12:00:28.282Z,43.20
2018-04-18T12:02:55.894Z,43.20
2018-04-18T12:05:23.480Z,44.10
2018-04-18T12:07:51.039Z,42.80
2018-04-18T12:10:18.540Z,43.90
2018-04-18T12:12:46.529Z,43.90
2018-04-18T12:15:14.439Z,41.20
2018-04-18T12:17:41.941Z,41.20
2018-04-18T12:20:09.447Z,41.40
2018-04-18T12:22:36.952Z,43.40
2018-04-18T12:25:04.557Z,42.10
2018-04-18T12:27:32.068Z,43.10
2018-04-18T12:29:59.566Z,44.00
2018-04-18T12:32:27.055Z,43.10
2018-04-18T12:34:54.559Z,42.30
2018-04-18T12:37:22.081Z,42.90
2018-04-18T12:39:50.113Z,41.30
2018-04-18T12:42:17.603Z,41.40
2018-04-18T12:44:45.125Z,41.50
2018-04-18T12:47:12.621Z,42.80
2018-04-18T12:49:40.600Z,44.30
2018-04-18T12:52:08.103Z,44.30
2018-04-18T12:54:35.681Z,42.70
2018-04-18T12:57:03.563Z,42.80
2018-04-18T12:59:31.076Z,42.80
2018-04-18T13:01:58.623Z,42.70
2018-04-18T13:04:26.129Z,45.40
2018-04-18T13:06:54.037Z,42.20
2018-04-18T13:09:21.545Z,42.20
2018-04-18T13:11:49.076Z,42.30
2018-04-18T13:14:16.582Z,42.20
2018-04-18T13:16:44.104Z,42.50
2018-04-18T13:19:11.601Z,42.70
2018-04-18T13:21:39.119Z,42.80
2018-04-18T13:24:07.137Z,43.60
2018-04-18T13:26:34.697Z,43.60
2018-04-18T13:29:02.201Z,42.80
2018-04-18T13:31:29.786Z,42.10
2018-04-18T13:33:57.345Z,41.70
2018-04-18T13:36:25.252Z,43.20
2018-04-18T13:38:53.148Z,40.40
2018-04-18T13:41:20.703Z,40.40
2018-04-18T13:43:48.187Z,41.20
2018-04-18T13:46:15.773Z,43.80
2018-04-18T13:48:43.259Z,43.00
2018-04-18T13:51:10.774Z,43.40
2018-04-18T13:53:38.333Z,42.00
2018-04-18T13:56:05.853Z,41.60
2018-04-18T13:58:33.339Z,39.50
2018-04-18T14:01:00.844Z,39.90
2018-04-18T14:03:28.345Z,39.80
2018-04-18T14:05:55.956Z,39.70
2018-04-18T14:08:23.843Z,41.90
2018-04-18T14:10:51.830Z,40.50
2018-04-18T14:13:19.418Z,40.50
2018-04-18T14:15:46.929Z,41.00
2018-04-18T14:18:14.416Z,42.10
2018-04-18T14:20:41.928Z,40.90
2018-04-18T14:23:09.415Z,40.90
2018-04-18T14:25:36.935Z,40.80
2018-04-18T14:28:04.429Z,39.90
2018-04-18T14:30:32.419Z,39.60
2018-04-18T14:33:00.313Z,42.30
2018-04-18T14:35:28.296Z,41.60
2018-04-18T14:37:55.883Z,41.60
2018-04-18T14:40:23.393Z,38.80
2018-04-18T14:42:51.281Z,39.40
2018-04-18T14:45:19.179Z,39.20
2018-04-18T14:47:47.143Z,41.50
2018-04-18T14:50:14.731Z,41.50
2018-04-18T14:52:42.324Z,40.30
2018-04-18T14:55:09.841Z,38.70
2018-04-18T14:57:37.351Z,39.20
2018-04-18T15:00:04.844Z,41.50
2018-04-18T15:02:32.455Z,39.80
2018-04-18T15:05:00.070Z,40.30
2018-04-18T15:07:27.593Z,41.00
2018-04-18T15:09:55.080Z,39.20
2018-04-18T15:12:22.589Z,39.00
2018-04-18T15:14:50.076Z,41.00
2018-04-18T15:17:17.670Z,39.90
2018-04-18T15:19:45.564Z,40.00
2018-04-18T15:22:13.477Z,40.00
2018-04-18T15:24:40.973Z,40.00
2018-04-18T15:27:08.492Z,39.80
2018-04-18T15:29:35.979Z,40.20
2018-04-18T15:32:03.487Z,41.50
2018-04-18T15:34:31.375Z,40.60
2018-04-18T15:36:58.951Z,40.60
2018-04-18T15:39:26.435Z,40.70
2018-04-18T15:41:53.951Z,41.10
2018-04-18T15:44:21.513Z,43.20
2018-04-18T15:46:49.087Z,41.70
2018-04-18T15:49:16.585Z,41.90
2018-04-18T15:51:44.506Z,41.80
2018-04-18T15:54:12.062Z,41.80
2018-04-18T15:56:39.978Z,42.50
2018-04-18T15:59:07.473Z,42.50
2018-04-18T16:01:35.015Z,42.20
2018-04-18T16:04:02.544Z,43.50
2018-04-18T16:06:30.057Z,43.20
2018-04-18T16:08:57.564Z,42.50
2018-04-18T16:11:25.076Z,42.80
2018-04-18T16:13:52.645Z,43.10
2018-04-18T16:16:20.628Z,43.20
2018-04-18T16:18:48.138Z,43.20
2018-04-18T16:21:15.701Z,44.60
2018-04-18T16:23:43.592Z,44.00
2018-04-18T16:26:11.186Z,44.00
2018-04-18T16:28:39.081Z,43.80
2018-04-18T16:31:06.975Z,45.20
2018-04-18T16:33:34.855Z,43.80
2018-04-18T16:36:02.451Z,43.80
2018-04-18T16:38:30.428Z,44.90
2018-04-18T16:40:57.944Z,44.90
2018-04-18T16:43:25.441Z,44.80
2018-04-18T16:45:52.948Z,45.20
2018-04-18T16:48:20.445Z,45.20
2018-04-18T16:50:47.935Z,44.90
2018-04-18T16:53:15.435Z,44.70
2018-04-18T16:55:42.937Z,45.10
2018-04-18T16:58:10.907Z,45.60
2018-04-18T17:00:38.505Z,45.60
2018-04-18T17:03:06.408Z,46.10
2018-04-18T17:05:34.298Z,45.90
2018-04-18T17:08:02.198Z,45.80
2018-04-18T17:10:29.683Z,45.80
2018-04-18T17:12:57.201Z,45.20
2018-04-18T17:15:24.688Z,45.80
2018-04-18T17:17:52.225Z,45.60
2018-04-18T17:20:20.191Z,45.90
2018-04-18T17:22:47.710Z,45.90
2018-04-18T17:25:15.209Z,46.20
2018-04-18T17:27:42.773Z,46.20
2018-04-18T17:30:10.748Z,47.00
2018-04-18T17:32:38.266Z,47.00
2018-04-18T17:35:05.793Z,47.00
2018-04-18T17:37:33.349Z,45.90
2018-04-18T17:40:00.875Z,46.50
2018-04-18T17:42:28.464Z,46.70
2018-04-18T17:44:55.967Z,46.30
2018-04-18T17:47:23.924Z,45.20
2018-04-18T17:49:51.426Z,45.20
2018-04-18T17:52:18.953Z,45.80
2018-04-18T17:54:47.426Z,46.20
2018-04-18T17:57:15.433Z,47.10
2018-04-18T17:59:43.317Z,48.90
2018-04-18T18:02:11.299Z,52.30
2018-04-18T18:04:38.783Z,52.30
2018-04-18T18:07:06.284Z,53.50
2018-04-18T18:09:34.180Z,54.50
2018-04-18T18:12:02.098Z,55.30
2018-04-18T18:14:29.589Z,55.30
2018-04-18T18:16:57.111Z,55.30
2018-04-18T18:19:24.696Z,56.00
2018-04-18T18:21:52.220Z,56.00
2018-04-18T18:24:19.789Z,55.90
2018-04-18T18:26:47.692Z,56.20
2018-04-18T18:29:15.197Z,56.20
2018-04-18T18:31:42.763Z,56.40
2018-04-18T18:34:10.257Z,56.40
2018-04-18T18:36:37.767Z,57.10
2018-04-18T18:39:05.265Z,57.60
2018-04-18T18:41:32.844Z,57.80
2018-04-18T18:44:00.368Z,56.50
2018-04-18T18:46:28.283Z,57.10
2018-04-18T18:48:55.787Z,57.10
2018-04-18T18:51:23.280Z,57.90
2018-04-18T18:53:50.788Z,58.10
2018-04-18T18:56:18.327Z,58.90
2018-04-18T18:58:45.835Z,58.90
2018-04-18T19:01:13.362Z,58.80
2018-04-18T19:03:41.276Z,59.10
2018-04-18T19:06:08.780Z,59.10
2018-04-18T19:08:36.292Z,59.70
2018-04-18T19:11:03.793Z,60.10
2018-04-18T19:13:31.720Z,59.10
2018-04-18T19:15:59.216Z,59.10
2018-04-18T19:18:26.865Z,58.90
2018-04-18T19:20:54.751Z,60.50
2018-04-18T19:23:22.648Z,60.40
2018-04-18T19:25:50.541Z,60.70
2018-04-18T19:28:18.577Z,61.30
2018-04-18T19:30:46.015Z,61.30
2018-04-18T19:33:13.922Z,61.70
2018-04-18T19:35:41.420Z,61.70
2018-04-18T19:38:08.945Z,61.60
2018-04-18T19:40:36.443Z,62.20
2018-04-18T19:43:03.943Z,62.00
2018-04-18T19:45:31.822Z,62.80
2018-04-18T19:47:59.340Z,62.80
2018-04-18T19:50:26.822Z,62.90
2018-04-18T19:52:54.332Z,62.80
2018-04-18T19:55:21.825Z,63.10
2018-04-18T19:57:49.442Z,63.20
2018-04-18T20:00:16.927Z,63.40
2018-04-18T20:02:44.520Z,63.60
2018-04-18T20:05:12.443Z,62.60
2018-04-18T20:07:39.994Z,62.60
2018-04-18T20:10:07.482Z,62.20
2018-04-18T20:12:35.384Z,62.70
2018-04-18T20:15:03.365Z,62.80
2018-04-18T20:17:31.276Z,62.60
2018-04-18T20:19:58.832Z,62.60
2018-04-18T20:22:26.408Z,62.60
2018-04-18T20:24:53.865Z,63.50
2018-04-18T20:27:21.381Z,63.20
2018-04-18T20:29:48.875Z,63.80
2018-04-18T20:32:16.461Z,64.00
2018-04-18T20:34:44.352Z,63.80
2018-04-18T20:37:11.835Z,63.80
2018-04-18T20:39:39.827Z,63.50
2018-04-18T20:42:07.434Z,63.50
2018-04-18T20:44:35.409Z,64.10
2018-04-18T20:47:03.296Z,64.20
2018-04-18T20:49:30.814Z,64.20
2018-04-18T20:51:58.304Z,64.30
2018-04-18T20:54:25.813Z,63.70
2018-04-18T20:56:53.299Z,63.70
2018-04-18T20:59:20.809Z,63.10
2018-04-18T21:01:48.322Z,62.70
2018-04-18T21:04:15.894Z,63.20
2018-04-18T21:06:43.884Z,59.80
2018-04-18T21:09:11.793Z,58.90
2018-04-18T21:11:39.760Z,59.20
2018-04-18T21:14:07.278Z,59.20
2018-04-18T21:19:06.926Z,59.90
2018-04-18T21:21:34.411Z,61.50
2018-04-18T21:24:02.332Z,59.80
2018-04-18T21:26:29.890Z,59.80
2018-04-18T21:28:57.428Z,60.70
2018-04-18T21:31:24.915Z,62.20
2018-04-18T21:33:52.429Z,62.00
2018-04-18T21:36:20.021Z,61.90
2018-04-18T21:38:47.527Z,61.30
2018-04-18T21:41:15.424Z,62.20
2018-04-18T21:43:42.974Z,62.20
2018-04-18T21:46:10.469Z,62.30
2018-04-18T21:48:38.480Z,63.20
2018-04-18T21:51:06.368Z,63.40
2018-04-18T21:53:34.281Z,63.30
2018-04-18T21:56:01.777Z,63.30
2018-04-18T21:58:29.281Z,63.80
2018-04-18T22:00:56.784Z,63.50
2018-04-18T22:03:24.375Z,63.50
2018-04-18T22:05:51.859Z,64.40
2018-04-18T22:08:19.364Z,64.50
2018-04-18T22:10:47.350Z,64.90
2018-04-18T22:13:15.269Z,65.10
2018-04-18T22:15:42.763Z,65.10
2018-04-18T22:18:10.268Z,64.80
2018-04-18T22:20:37.773Z,64.50
2018-04-18T22:23:05.377Z,65.00
2018-04-18T22:25:33.360Z,64.80
2018-04-18T22:28:00.875Z,64.80
2018-04-18T22:30:28.438Z,65.30
2018-04-18T22:32:56.425Z,64.40
2018-04-18T22:35:24.317Z,65.30
2018-04-18T22:37:52.209Z,66.20
2018-04-18T22:40:19.788Z,66.10
2018-04-18T22:42:47.375Z,66.60
2018-04-18T22:45:14.954Z,66.60
2018-04-18T22:47:42.557Z,66.40
2018-04-18T22:50:10.463Z,66.60
2018-04-18T22:52:38.347Z,66.90
2018-04-18T22:55:06.338Z,66.90
2018-04-18T22:57:34.223Z,66.40
2018-04-18T23:00:02.138Z,65.90
2018-04-18T23:02:29.691Z,65.90
2018-04-18T23:04:57.216Z,64.70
2018-04-18T23:07:24.777Z,65.50
2018-04-18T23:09:52.688Z,62.30
2018-04-18T23:12:20.194Z,62.20
2018-04-18T23:14:47.712Z,61.90
2018-04-18T23:17:15.207Z,61.00
2018-04-18T23:19:42.720Z,61.40
2018-04-18T23:22:10.221Z,60.60
2018-04-18T23:24:37.745Z,60.50
2018-04-18T23:27:05.248Z,59.60
2018-04-18T23:29:32.773Z,58.90
2018-04-18T23:32:00.316Z,58.20
2018-04-18T23:34:28.303Z,57.40
2018-04-18T23:36:55.810Z,57.40
2018-04-18T23:39:23.729Z,56.90
2018-04-18T23:41:51.220Z,56.90
2018-04-18T23:44:18.728Z,56.70
2018-04-18T23:46:46.223Z,56.50
2018-04-18T23:49:13.745Z,56.30
2018-04-18T23:51:41.299Z,56.20
2018-04-18T23:54:08.803Z,56.30
2018-04-18T23:56:36.690Z,56.30
2018-04-18T23:59:04.601Z,56.50
